Time;durP1;ratioP1;P1;durP2;ratioP2;P2;SDS_P1;SDS_P2;PMS_P1;PMS_P2;Temp;Humidity;BMP_temperature;BMP_pressure;BME280_temperature;BME280_humidity;BME280_pressure;Samples;Min_cycle;Max_cycle;Signal;HPM_P1;HPM_P2
2023/07/10 00:00:27;;;;;;;9.20;8.30;;;;;;;14.98;65.10;97643.67;107614;1239;99257;-80
2023/07/10 00:03:13;;;;;;;9.80;8.60;;;;;;;14.93;65.33;97645.08;108053;1235;97496;-80
2023/07/10 00:05:39;;;;;;;10.50;8.40;;;;;;;14.89;65.35;97643.33;108072;1245;97793;-75
2023/07/10 00:08:06;;;;;;;10.60;7.70;;;;;;;14.87;65.49;97641.55;108094;1239;97810;-75
2023/07/10 00:10:32;;;;;;;9.20;8.10;;;;;;;14.84;65.43;97642.61;108176;1245;97787;-77
2023/07/10 00:12:58;;;;;;;9.60;8.40;;;;;;;14.80;65.63;97643.80;108084;1233;96819;-75
2023/07/10 00:15:26;;;;;;;9.60;8.30;;;;;;;14.75;65.74;97640.05;108220;1237;97502;-76
2023/07/10 00:17:53;;;;;;;10.90;8.20;;;;;;;14.72;65.83;97644.17;108120;1239;96765;-75
2023/07/10 00:20:27;;;;;;;9.60;8.70;;;;;;;14.70;65.96;97642.33;108220;1239;98373;-74
2023/07/10 00:22:54;;;;;;;10.00;8.70;;;;;;;14.63;66.12;97641.63;107655;1241;100126;-75
2023/07/10 00:25:21;;;;;;;10.20;8.10;;;;;;;14.57;66.21;97642.95;108153;1242;97810;-75
2023/07/10 00:27:49;;;;;;;11.30;8.80;;;;;;;14.55;66.34;97644.84;107784;1244;97091;-75
2023/07/10 00:30:18;;;;;;;10.70;8.20;;;;;;;14.52;66.41;97643.70;108084;1233;96560;-75
2023/07/10 00:32:46;;;;;;;8.70;7.80;;;;;;;14.49;66.46;97639.08;107712;1242;100494;-80
2023/07/10 00:35:16;;;;;;;9.10;8.00;;;;;;;14.46;66.41;97635.98;107621;1244;100041;-80
2023/07/10 00:38:01;;;;;;;9.10;8.20;;;;;;;14.44;66.47;97641.27;107974;1241;97708;-81
2023/07/10 00:40:33;;;;;;;11.10;8.00;;;;;;;14.42;66.58;97642.27;107967;1233;97099;-80
2023/07/10 00:43:22;;;;;;;9.40;8.10;;;;;;;14.40;66.66;97643.12;107641;1239;101125;-80
2023/07/10 00:45:51;;;;;;;8.90;7.90;;;;;;;14.36;66.97;97644.69;107679;1239;101311;-78
2023/07/10 00:48:27;;;;;;;12.00;8.70;;;;;;;14.31;66.99;97642.09;107712;1242;99406;-79
2023/07/10 00:50:56;;;;;;;11.60;8.90;;;;;;;14.25;67.08;97637.48;107749;1243;97481;-78
2023/07/10 00:53:41;;;;;;;11.10;8.70;;;;;;;14.21;67.25;97635.41;107535;1245;97772;-78
2023/07/10 00:56:14;;;;;;;11.00;9.10;;;;;;;14.20;67.28;97639.35;107546;1245;101260;-78
2023/07/10 00:58:45;;;;;;;10.70;8.20;;;;;;;14.19;67.24;97635.94;107746;1241;101420;-77
2023/07/10 01:01:16;;;;;;;8.70;7.80;;;;;;;14.17;67.25;97633.38;107552;1242;98731;-80
2023/07/10 01:03:44;;;;;;;9.30;8.20;;;;;;;14.16;67.40;97633.55;107580;1241;97286;-80
2023/07/10 01:06:30;;;;;;;10.70;8.70;;;;;;;14.14;67.41;97635.30;107583;1244;97600;-80
2023/07/10 01:09:06;;;;;;;11.40;8.50;;;;;;;14.07;67.52;97632.62;107682;1251;102384;-80
2023/07/10 01:11:35;;;;;;;9.60;8.20;;;;;;;14.05;67.67;97634.09;107729;1241;100213;-80
2023/07/10 01:14:04;;;;;;;10.80;8.10;;;;;;;14.02;67.57;97634.55;107401;1233;100258;-80
2023/07/10 01:16:31;;;;;;;9.50;8.60;;;;;;;13.97;67.63;97631.70;108075;1238;97487;-81
2023/07/10 01:18:58;;;;;;;9.90;8.10;;;;;;;13.87;67.60;97629.94;108205;1235;97100;-81
2023/07/10 01:21:33;;;;;;;10.90;8.10;;;;;;;13.78;67.75;97632.10;108195;1237;97811;-80
2023/07/10 01:24:05;;;;;;;9.40;8.40;;;;;;;13.75;67.91;97632.60;107656;1241;100335;-79
2023/07/10 01:26:35;;;;;;;10.60;8.00;;;;;;;13.74;67.95;97630.95;107672;1249;100101;-78
2023/07/10 01:29:03;;;;;;;13.10;8.60;;;;;;;13.72;68.06;97630.08;108124;1239;97128;-78
2023/07/10 01:31:31;;;;;;;9.30;8.00;;;;;;;13.69;67.99;97625.85;108101;1237;97070;-79
2023/07/10 01:34:04;;;;;;;10.70;8.60;;;;;;;13.65;67.98;97625.64;108169;1237;102214;-78
2023/07/10 01:36:36;;;;;;;9.30;7.70;;;;;;;13.62;68.05;97617.77;108177;1233;100295;-79
2023/07/10 01:39:42;;;;;;;9.20;8.00;;;;;;;13.61;68.13;97616.72;108126;1239;99777;-78
2023/07/10 01:42:09;;;;;;;9.30;8.30;;;;;;;13.58;68.28;97618.46;108187;1238;96558;-78
2023/07/10 01:45:16;;;;;;;12.30;9.50;;;;;;;13.53;68.33;97624.39;108214;1244;96622;-83
2023/07/10 01:48:23;;;;;;;9.70;8.70;;;;;;;13.47;68.55;97621.63;108010;1249;102252;-80
2023/07/10 01:51:29;;;;;;;8.70;7.90;;;;;;;13.43;68.61;97620.32;106503;1252;100109;-83
2023/07/10 01:54:36;;;;;;;11.90;7.80;;;;;;;13.40;68.62;97621.54;105561;1262;99104;-82
2023/07/10 01:57:33;;;;;;;11.90;8.30;;;;;;;13.34;68.76;97626.67;104573;1274;97841;-83
2023/07/10 02:00:33;;;;;;;11.30;8.60;;;;;;;13.28;68.66;97620.21;104587;1280;97831;-81
2023/07/10 02:03:15;;;;;;;8.70;7.90;;;;;;;13.20;68.72;97623.30;104605;1283;109347;-74
2023/07/10 02:06:04;;;;;;;9.20;8.30;;;;;;;13.18;68.90;97624.77;104721;1271;100433;-72
2023/07/10 02:33:27;;;;;;;11.40;8.40;;;;;;;12.94;69.54;97614.38;101920;1292;636430;-73
2023/07/10 02:36:10;;;;;;;10.70;8.40;;;;;;;12.90;69.69;97613.55;104671;1269;95800;-73
2023/07/10 02:38:51;;;;;;;12.00;8.90;;;;;;;12.88;69.79;97612.84;104614;1266;95862;-76
2023/07/10 02:41:46;;;;;;;9.10;7.90;;;;;;;12.86;69.80;97616.23;103500;1280;98112;-74
2023/07/10 02:44:51;;;;;;;9.60;8.60;;;;;;;12.83;69.90;97617.99;103429;1276;100415;-74
2023/07/10 02:50:16;;;;;;;9.40;8.40;;;;;;;12.84;69.87;97617.39;101528;1292;642795;-75
2023/07/10 02:53:08;;;;;;;9.70;8.70;;;;;;;12.78;69.86;97613.63;104002;1272;96326;-76
2023/07/10 02:57:07;;;;;;;13.90;8.60;;;;;;;12.79;70.00;97617.67;101928;1294;635916;-76
2023/07/10 02:59:43;;;;;;;9.60;8.60;;;;;;;12.76;70.12;97616.64;104092;1272;95842;-74
2023/07/10 03:02:51;;;;;;;8.70;7.80;;;;;;;12.75;70.07;97616.02;103934;1275;97301;-83
2023/07/10 03:06:00;;;;;;;8.80;8.00;;;;;;;12.73;70.11;97609.38;103249;1283;99024;-83
2023/07/10 03:08:58;;;;;;;9.20;8.30;;;;;;;12.72;70.21;97614.41;102736;1290;100474;-84
2023/07/10 03:11:47;;;;;;;13.00;8.10;;;;;;;12.68;70.35;97609.00;102121;1292;107911;-83
2023/07/10 03:14:28;;;;;;;9.70;8.60;;;;;;;12.63;70.45;97605.61;102259;1290;95891;-83
2023/07/10 03:17:35;;;;;;;12.20;9.00;;;;;;;12.63;70.60;97608.70;102403;1302;96862;-81
2023/07/10 03:20:44;;;;;;;11.00;8.00;;;;;;;12.64;70.62;97612.44;102316;1292;98801;-83
2023/07/10 03:38:37;;;;;;;13.70;8.60;;;;;;;12.99;70.49;97614.09;102637;1285;639342;-83
2023/07/10 05:13:46;;;;;;;9.10;7.80;;;;;;;14.56;71.39;97590.92;105530;1263;94267;-85
2023/07/10 05:17:54;;;;;;;11.10;8.40;;;;;;;14.67;71.33;97593.55;102178;1303;642676;-83
2023/07/10 05:20:20;;;;;;;10.40;8.10;;;;;;;14.68;71.49;97595.32;104444;1265;96145;-84
2023/07/10 05:22:47;;;;;;;14.20;8.00;;;;;;;14.72;71.59;97597.38;104584;1270;95934;-84
2023/07/10 05:25:13;;;;;;;10.00;8.00;;;;;;;14.77;71.92;97598.65;104799;1257;102125;-84
2023/07/10 05:27:39;;;;;;;9.00;8.10;;;;;;;14.82;71.70;97596.95;104780;1257;95857;-83
2023/07/10 05:30:06;;;;;;;11.60;8.50;;;;;;;14.86;71.51;97599.07;104696;1263;173912;-84
2023/07/10 05:32:33;;;;;;;14.90;8.60;;;;;;;14.91;71.66;97600.77;105230;1257;95831;-84
2023/07/10 05:34:59;;;;;;;15.00;8.00;;;;;;;14.96;71.58;97601.19;105096;1261;102188;-84
2023/07/10 05:37:26;;;;;;;16.30;9.00;;;;;;;15.04;71.42;97601.86;105042;1259;95890;-83
2023/07/10 05:39:52;;;;;;;10.70;8.50;;;;;;;15.10;71.43;97599.29;104973;1272;95908;-84
2023/07/10 05:42:19;;;;;;;16.60;9.10;;;;;;;15.17;71.30;97594.85;105214;1260;95834;-84
2023/07/10 05:44:45;;;;;;;14.70;8.90;;;;;;;15.24;71.40;97590.54;105136;1267;102140;-84
2023/07/10 05:47:11;;;;;;;14.30;9.20;;;;;;;15.32;71.58;97584.33;104978;1260;96400;-84
2023/07/10 05:49:38;;;;;;;15.10;8.60;;;;;;;15.40;71.78;97585.60;104947;1268;96779;-84
2023/07/10 05:52:04;;;;;;;13.50;8.20;;;;;;;15.50;71.75;97587.17;105067;1260;96107;-84
2023/07/10 05:54:31;;;;;;;12.30;8.60;;;;;;;15.58;71.93;97587.30;105066;1257;100104;-84
2023/07/10 05:57:03;;;;;;;13.60;8.80;;;;;;;15.64;71.80;97580.41;104774;1255;95896;-84
2023/07/10 05:59:30;;;;;;;14.00;8.60;;;;;;;15.68;71.51;97576.93;104697;1259;95764;-84
2023/07/10 06:01:57;;;;;;;11.70;8.50;;;;;;;15.84;71.58;97586.51;105110;1258;95858;-84
2023/07/10 06:04:29;;;;;;;12.90;7.80;;;;;;;15.94;71.68;97587.64;105059;1257;95904;-84
2023/07/10 06:06:55;;;;;;;13.40;8.10;;;;;;;16.05;71.63;97585.35;104895;1260;102184;-84
2023/07/10 06:09:22;;;;;;;11.10;8.40;;;;;;;16.14;71.25;97584.90;104958;1278;95841;-85
2023/07/10 06:11:48;;;;;;;10.70;7.90;;;;;;;16.23;70.62;97582.95;104979;1259;95826;-85
2023/07/10 06:14:14;;;;;;;9.90;8.30;;;;;;;16.34;70.31;97587.61;104999;1259;95896;-86
2023/07/10 06:16:41;;;;;;;10.80;7.90;;;;;;;16.44;70.22;97588.69;104967;1258;100173;-85
2023/07/10 06:19:07;;;;;;;11.00;8.00;;;;;;;16.55;70.06;97584.74;105140;1259;95956;-85
2023/07/10 06:23:41;;;;;;;11.70;7.70;;;;;;;16.79;69.73;97583.96;101401;1298;641894;-75
2023/07/10 06:26:48;;;;;;;11.00;7.80;;;;;;;16.94;69.58;97575.63;103571;1278;96040;-73
2023/07/10 06:29:42;;;;;;;13.30;8.20;;;;;;;17.09;69.54;97571.31;102486;1287;96834;-75
2023/07/10 06:32:49;;;;;;;10.70;8.30;;;;;;;17.22;69.10;97575.98;102097;1296;99115;-75
2023/07/10 06:39:22;;;;;;;14.30;8.80;;;;;;;17.57;68.04;97564.33;101433;1298;639041;-73
2023/07/10 06:42:31;;;;;;;9.40;7.60;;;;;;;17.71;67.22;97564.55;103106;1280;96002;-74
2023/07/10 06:45:39;;;;;;;15.20;7.80;;;;;;;17.87;66.50;97564.52;103150;1284;96919;-72
2023/07/10 06:48:48;;;;;;;17.70;8.30;;;;;;;18.02;66.48;97562.80;102446;1300;98421;-71
2023/07/10 06:51:56;;;;;;;13.40;8.20;;;;;;;18.19;66.22;97560.27;97892;1298;5441990;-74
2023/07/10 06:58:10;;;;;;;10.80;8.80;;;;;;;18.55;65.97;97554.70;101163;1311;638578;-72
2023/07/10 07:01:20;;;;;;;13.70;8.30;;;;;;;18.71;65.92;97554.87;103127;1282;95962;-72
2023/07/10 07:04:28;;;;;;;14.30;8.20;;;;;;;18.91;65.89;97553.40;103591;1278;96185;-74
2023/07/10 07:53:17;;;;;;;8.80;6.40;;;;;;;22.16;57.94;97498.09;105536;1261;95218;-83
2023/07/10 07:55:43;;;;;;;12.40;7.10;;;;;;;22.34;57.77;97495.85;106278;1255;98219;-85
2023/07/10 07:58:09;;;;;;;9.10;7.50;;;;;;;22.55;57.01;97495.05;106070;1258;95848;-84
2023/07/10 08:00:36;;;;;;;11.00;6.40;;;;;;;22.83;56.43;97495.69;105974;1268;95916;-82
2023/07/10 08:03:12;;;;;;;8.80;6.20;;;;;;;23.22;55.83;97495.93;106075;1257;97043;-82
2023/07/10 08:05:39;;;;;;;10.40;6.50;;;;;;;23.75;55.66;97495.29;105919;1259;100524;-82
2023/07/10 08:08:07;;;;;;;9.10;6.10;;;;;;;24.27;54.76;97492.64;106037;1254;95884;-83
2023/07/10 08:10:40;;;;;;;7.20;6.50;;;;;;;24.86;54.17;97496.00;106700;1248;96113;-86
2023/07/10 08:13:09;;;;;;;8.30;5.60;;;;;;;25.44;52.67;97494.73;106334;1255;95903;-83
2023/07/10 08:15:36;;;;;;;8.20;6.00;;;;;;;25.98;51.71;97494.40;106670;1251;96018;-83
2023/07/10 08:18:02;;;;;;;7.90;5.90;;;;;;;26.50;51.19;97493.39;106667;1262;96790;-83
2023/07/10 08:20:35;;;;;;;9.40;6.00;;;;;;;26.96;50.76;97491.05;106702;1251;95908;-85
2023/07/10 08:23:03;;;;;;;6.40;5.60;;;;;;;27.41;50.32;97490.34;106653;1255;99517;-86
2023/07/10 08:25:31;;;;;;;5.60;4.80;;;;;;;27.87;49.52;97486.87;106032;1259;95946;-85
2023/07/10 08:27:58;;;;;;;6.40;4.90;;;;;;;28.27;48.57;97491.44;106541;1254;96798;-83
2023/07/10 08:30:25;;;;;;;5.70;4.50;;;;;;;28.63;46.87;97491.65;106484;1262;95898;-84
2023/07/10 08:32:52;;;;;;;5.60;4.60;;;;;;;28.93;45.76;97490.40;106413;1253;96685;-85
2023/07/10 08:35:18;;;;;;;5.90;4.50;;;;;;;29.18;44.93;97491.19;107321;1244;96664;-88
2023/07/10 08:37:45;;;;;;;8.10;4.70;;;;;;;29.48;43.46;97487.28;107211;1252;96779;-85
2023/07/10 08:40:23;;;;;;;6.20;4.30;;;;;;;29.79;42.87;97485.73;107390;1244;95806;-86
2023/07/10 08:42:49;;;;;;;7.10;4.30;;;;;;;30.16;42.46;97482.55;107263;1246;109392;-87
2023/07/10 08:45:40;;;;;;;5.70;4.30;;;;;;;30.43;41.10;97478.23;107310;1244;95803;-85
2023/07/10 08:48:35;;;;;;;7.20;4.20;;;;;;;30.75;40.73;97479.25;106938;1248;95907;-87
2023/07/10 08:51:20;;;;;;;5.80;4.20;;;;;;;31.13;40.35;97479.48;107410;1245;96043;-87
2023/07/10 08:54:05;;;;;;;5.80;4.10;;;;;;;31.47;39.22;97476.46;107492;1243;101580;-84
2023/07/10 08:56:33;;;;;;;4.20;3.80;;;;;;;31.73;38.82;97472.08;107490;1242;100356;-84
2023/07/10 08:59:29;;;;;;;5.00;3.80;;;;;;;31.82;38.27;97467.52;107388;1251;98922;-88
2023/07/10 09:01:57;;;;;;;4.70;4.20;;;;;;;32.00;37.30;97466.80;107449;1244;97101;-89
2023/07/10 09:04:24;;;;;;;7.30;4.40;;;;;;;32.20;36.37;97467.80;107437;1245;96869;-85
2023/07/10 09:07:02;;;;;;;8.20;3.80;;;;;;;32.15;36.16;97465.66;107063;1246;96631;-86
2023/07/10 09:09:43;;;;;;;3.80;3.50;;;;;;;31.99;35.96;97468.61;107581;1244;100430;-85
2023/07/10 09:12:31;;;;;;;4.50;3.50;;;;;;;32.16;35.17;97465.23;107519;1245;98862;-85
2023/07/10 09:15:08;;;;;;;4.20;3.40;;;;;;;32.21;34.57;97468.31;107422;1242;96631;-88
2023/07/10 09:17:47;;;;;;;5.00;3.50;;;;;;;31.99;34.35;97467.58;107528;1238;95887;-85
2023/07/10 09:20:14;;;;;;;4.40;3.10;;;;;;;31.86;34.75;97467.66;107478;1252;99746;-84
2023/07/10 09:22:51;;;;;;;4.80;3.70;;;;;;;31.82;34.68;97463.44;107473;1242;99871;-88
2023/07/10 09:25:20;;;;;;;4.40;3.50;;;;;;;31.89;34.56;97464.31;107373;1243;98723;-85
2023/07/10 09:27:48;;;;;;;5.00;3.20;;;;;;;32.11;34.16;97457.79;107143;1253;96776;-84
2023/07/10 09:30:26;;;;;;;4.50;3.60;;;;;;;32.25;33.83;97451.60;107492;1242;95998;-86
2023/07/10 09:33:08;;;;;;;4.50;3.70;;;;;;;32.20;34.42;97449.61;107418;1238;99795;-85
2023/07/10 09:35:40;;;;;;;4.40;3.60;;;;;;;32.36;33.74;97452.77;107139;1238;99878;-84
2023/07/10 09:38:10;;;;;;;4.20;3.80;;;;;;;32.62;33.01;97450.59;106930;1251;100594;-86
2023/07/10 09:40:40;;;;;;;4.70;3.60;;;;;;;32.70;33.45;97453.86;107468;1239;96238;-86
2023/07/10 09:43:12;;;;;;;6.30;3.30;;;;;;;32.83;32.88;97455.23;107481;1238;96763;-82
2023/07/10 09:45:43;;;;;;;5.80;4.00;;;;;;;32.96;32.91;97460.95;107481;1250;99868;-86
2023/07/10 09:48:23;;;;;;;4.70;3.30;;;;;;;33.09;31.73;97465.58;107390;1250;100324;-85
2023/07/10 09:50:52;;;;;;;8.40;4.30;;;;;;;32.97;31.33;97465.14;107865;1235;100613;-86
2023/07/10 09:53:29;;;;;;;4.20;3.80;;;;;;;32.86;31.45;97460.98;107460;1243;96849;-86
2023/07/10 09:55:56;;;;;;;4.40;3.70;;;;;;;32.95;31.10;97460.35;107747;1239;96441;-85
2023/07/10 09:58:22;;;;;;;6.00;3.70;;;;;;;32.96;30.79;97459.59;107742;1247;96305;-84
2023/07/10 10:00:49;;;;;;;4.20;3.40;;;;;;;33.07;30.58;97455.59;107807;1241;95875;-86
2023/07/10 10:03:25;;;;;;;5.30;3.40;;;;;;;33.16;30.05;97452.17;107958;1239;96246;-84
2023/07/10 10:05:57;;;;;;;5.50;3.80;;;;;;;33.20;30.20;97449.91;107758;1238;95938;-85
2023/07/10 10:08:43;;;;;;;;;;;;;;;33.27;29.64;97452.74;107195;1235;101481;-85
2023/07/10 10:11:11;;;;;;;6.10;3.90;;;;;;;33.30;29.83;97453.95;107959;1241;100369;-83
2023/07/10 10:14:00;;;;;;;4.80;4.20;;;;;;;33.25;30.18;97451.23;107504;1243;100605;-83
2023/07/10 10:16:32;;;;;;;4.20;3.80;;;;;;;33.08;29.90;97445.73;107817;1247;96741;-86
2023/07/10 10:19:05;;;;;;;4.80;3.70;;;;;;;33.14;29.84;97439.58;107740;1238;96651;-85
2023/07/10 10:21:33;;;;;;;4.00;3.70;;;;;;;33.22;29.82;97438.04;107743;1248;99799;-83
2023/07/10 10:24:05;;;;;;;8.50;4.60;;;;;;;33.16;30.09;97436.77;107786;1239;100171;-86
2023/07/10 10:26:41;;;;;;;4.80;3.80;;;;;;;33.19;30.07;97439.32;107939;1241;100656;-84
2023/07/10 10:30:09;;;;;;;4.80;4.30;;;;;;;33.17;30.18;97433.92;107844;1244;96139;-86
2023/07/10 10:33:02;;;;;;;4.40;3.80;;;;;;;33.07;30.43;97431.96;106690;1244;96857;-81
2023/07/10 10:35:44;;;;;;;6.20;3.90;;;;;;;32.96;29.80;97427.34;106928;1251;99734;-87
2023/07/10 10:38:37;;;;;;;7.60;4.40;;;;;;;33.06;30.19;97426.23;107284;1251;100210;-87
2023/07/10 10:41:13;;;;;;;3.70;3.40;;;;;;;33.21;29.89;97428.90;106955;1257;98573;-83
2023/07/10 10:43:57;;;;;;;8.20;4.20;;;;;;;33.25;29.34;97433.67;106855;1250;96983;-83
2023/07/10 10:46:47;;;;;;;12.40;4.10;;;;;;;33.38;28.68;97436.58;106872;1250;97094;-85
2023/07/10 10:49:22;;;;;;;5.60;3.60;;;;;;;33.43;28.47;97435.19;106864;1251;101623;-87
2023/07/10 10:52:28;;;;;;;5.40;3.80;;;;;;;33.50;28.76;97430.83;106854;1244;100215;-85
2023/07/10 10:55:32;;;;;;;4.50;4.00;;;;;;;33.56;28.40;97424.19;106845;1244;100563;-84
2023/07/10 10:58:02;;;;;;;7.10;4.20;;;;;;;33.49;28.91;97425.17;106862;1247;96195;-82
2023/07/10 11:01:12;;;;;;;5.50;3.80;;;;;;;33.48;28.85;97430.34;106973;1251;97220;-86
2023/07/10 11:03:47;;;;;;;7.00;4.20;;;;;;;33.35;28.64;97421.79;106697;1254;100636;-85
2023/07/10 11:06:16;;;;;;;4.60;3.80;;;;;;;33.30;28.02;97422.06;106976;1250;101979;-85
2023/07/10 11:08:48;;;;;;;4.90;3.90;;;;;;;33.27;28.52;97413.10;107207;1250;100525;-83
2023/07/10 11:11:27;;;;;;;5.30;3.80;;;;;;;33.31;29.01;97411.86;107453;1244;95884;-82
2023/07/10 11:13:53;;;;;;;4.80;3.60;;;;;;;33.43;28.82;97411.36;107735;1241;95964;-88
2023/07/10 11:16:20;;;;;;;4.50;4.00;;;;;;;33.54;27.92;97406.45;107879;1242;97169;-85
2023/07/10 11:18:47;;;;;;;4.20;3.80;;;;;;;33.50;27.71;97412.02;107729;1237;96171;-85
2023/07/10 11:21:13;;;;;;;4.60;3.70;;;;;;;33.53;28.00;97417.31;107809;1242;95914;-85
2023/07/10 11:23:42;;;;;;;4.60;3.80;;;;;;;33.48;27.60;97414.52;108016;1242;96740;-88
2023/07/10 11:26:18;;;;;;;7.20;3.40;;;;;;;33.54;27.05;97409.02;107726;1237;101747;-84
2023/07/10 11:29:28;;;;;;;4.90;3.90;;;;;;;33.65;27.51;97404.48;107901;1239;100100;-81
2023/07/10 11:31:56;;;;;;;4.30;3.80;;;;;;;33.56;27.59;97394.77;107115;1248;100526;-82
2023/07/10 11:34:22;;;;;;;4.70;3.70;;;;;;;33.62;28.24;97393.23;106954;1251;96703;-81
2023/07/10 11:36:50;;;;;;;5.10;3.80;;;;;;;33.66;28.09;97387.90;107066;1242;96894;-84
2023/07/10 11:39:32;;;;;;;4.20;3.80;;;;;;;33.60;27.70;97382.70;107064;1248;96808;-83
2023/07/10 11:42:17;;;;;;;5.30;3.70;;;;;;;33.37;27.59;97380.27;107092;1246;102084;-84
2023/07/10 11:44:52;;;;;;;4.70;3.50;;;;;;;33.24;27.72;97381.05;107106;1242;98831;-83
2023/07/10 11:47:36;;;;;;;8.30;4.30;;;;;;;33.14;27.57;97380.54;106990;1250;96157;-86
2023/07/10 11:50:03;;;;;;;7.40;3.60;;;;;;;32.92;27.68;97380.88;107272;1248;95947;-84
2023/07/10 11:52:31;;;;;;;4.50;3.50;;;;;;;32.61;27.78;97381.58;106939;1257;97005;-86
2023/07/10 11:54:58;;;;;;;5.40;4.00;;;;;;;32.40;27.93;97378.11;107185;1242;100200;-87
2023/07/10 11:57:29;;;;;;;5.00;3.50;;;;;;;32.27;28.15;97377.77;107120;1242;96844;-84
2023/07/10 12:00:16;;;;;;;4.30;3.90;;;;;;;32.17;28.87;97374.66;107060;1244;97844;-87
2023/07/10 12:02:54;;;;;;;9.20;3.80;;;;;;;32.24;28.28;97380.08;106814;1242;97174;-85
2023/07/10 12:05:24;;;;;;;4.20;3.80;;;;;;;32.14;28.07;97377.59;107151;1242;103131;-84
2023/07/10 12:08:01;;;;;;;4.40;3.40;;;;;;;32.04;28.61;97373.14;107119;1254;102234;-83
2023/07/10 12:10:31;;;;;;;5.20;3.80;;;;;;;32.04;29.01;97374.88;107786;1237;98488;-82
2023/07/10 12:13:00;;;;;;;4.70;3.80;;;;;;;31.99;28.37;97368.35;107338;1246;96980;-84
2023/07/10 12:15:27;;;;;;;6.90;4.00;;;;;;;31.79;28.42;97373.87;107878;1235;96994;-84
2023/07/10 12:17:55;;;;;;;4.70;4.20;;;;;;;31.60;29.05;97373.85;107791;1239;97327;-86
2023/07/10 12:20:26;;;;;;;6.50;3.90;;;;;;;31.36;29.39;97375.85;107779;1239;102129;-87
2023/07/10 12:22:56;;;;;;;5.00;3.90;;;;;;;31.16;29.42;97375.58;107793;1239;100789;-87
2023/07/10 12:25:22;;;;;;;7.90;4.30;;;;;;;31.08;28.89;97375.34;107598;1244;96547;-85
2023/07/10 12:27:49;;;;;;;6.10;4.10;;;;;;;31.06;28.85;97376.46;108081;1237;97804;-86
2023/07/10 12:30:22;;;;;;;5.10;4.50;;;;;;;31.10;29.00;97376.73;108101;1250;96538;-83
2023/07/10 12:32:53;;;;;;;6.40;4.50;;;;;;;31.11;29.82;97373.02;107503;1244;109946;-87
2023/07/10 12:35:36;;;;;;;6.30;4.40;;;;;;;31.05;29.51;97368.96;107601;1243;98299;-85
2023/07/10 12:38:04;;;;;;;5.60;4.10;;;;;;;30.95;30.06;97365.42;108018;1244;96533;-86
2023/07/10 12:40:32;;;;;;;8.50;4.20;;;;;;;30.88;30.69;97362.05;107911;1235;96540;-84
2023/07/10 12:43:21;;;;;;;4.60;4.20;;;;;;;31.02;31.05;97361.91;107492;1245;103235;-86
2023/07/10 12:46:15;;;;;;;5.70;4.50;;;;;;;31.19;30.45;97362.13;107813;1239;101964;-85
2023/07/10 12:48:41;;;;;;;6.10;4.20;;;;;;;31.27;30.56;97357.46;107699;1239;98799;-82
2023/07/10 12:51:08;;;;;;;4.80;4.30;;;;;;;31.22;30.67;97359.44;107740;1239;96586;-83
2023/07/10 12:53:39;;;;;;;5.00;4.40;;;;;;;31.17;29.95;97354.48;107327;1245;97791;-85
2023/07/10 12:56:25;;;;;;;4.50;3.90;;;;;;;30.98;30.42;97352.86;107785;1239;101207;-83
2023/07/10 12:58:54;;;;;;;4.70;3.90;;;;;;;30.69;30.44;97348.80;108019;1241;102103;-86
2023/07/10 13:01:24;;;;;;;5.20;3.90;;;;;;;30.58;31.69;97342.19;107387;1235;98859;-86
2023/07/10 13:04:03;;;;;;;5.20;4.00;;;;;;;30.62;31.67;97334.95;107852;1239;96634;-83
2023/07/10 13:06:31;;;;;;;7.40;4.70;;;;;;;30.66;31.33;97332.23;107754;1235;97042;-86
2023/07/10 13:09:01;;;;;;;5.70;4.50;;;;;;;30.66;30.92;97331.26;107545;1237;110613;-88
2023/07/10 13:11:28;;;;;;;4.30;3.90;;;;;;;30.61;31.46;97330.21;107798;1239;101887;-84
2023/07/10 13:13:54;;;;;;;6.10;3.90;;;;;;;30.45;31.94;97332.08;107740;1237;97087;-83
2023/07/10 13:16:25;;;;;;;8.00;4.90;;;;;;;30.31;31.84;97334.81;107874;1249;97782;-83
2023/07/10 13:18:52;;;;;;;8.60;5.20;;;;;;;30.24;31.12;97335.73;107961;1239;97630;-84
2023/07/10 13:21:20;;;;;;;7.60;5.30;;;;;;;30.17;31.16;97336.29;107910;1239;97429;-86
2023/07/10 13:23:48;;;;;;;11.00;5.10;;;;;;;30.13;30.73;97333.02;107868;1241;96539;-84
2023/07/10 13:26:22;;;;;;;6.10;4.80;;;;;;;30.00;30.00;97328.23;107766;1239;100737;-86
2023/07/10 13:28:56;;;;;;;7.40;6.40;;;;;;;29.88;29.77;97324.80;107774;1239;97411;-87
2023/07/10 13:31:25;;;;;;;7.50;6.00;;;;;;;29.77;29.76;97323.55;107610;1241;97118;-81
2023/07/10 13:33:51;;;;;;;9.80;5.00;;;;;;;29.64;29.75;97319.65;107913;1246;102858;-82
2023/07/10 13:36:21;;;;;;;5.60;5.00;;;;;;;29.49;29.27;97319.52;107852;1239;96536;-86
2023/07/10 13:38:47;;;;;;;13.10;5.10;;;;;;;29.34;29.27;97314.77;107859;1249;100558;-86
2023/07/10 13:41:24;;;;;;;5.60;4.70;;;;;;;29.24;29.30;97306.79;107799;1249;96555;-86
2023/07/10 13:43:51;;;;;;;10.00;4.50;;;;;;;29.19;29.50;97308.64;107531;1244;96789;-84
2023/07/10 13:46:30;;;;;;;7.70;4.90;;;;;;;29.15;29.97;97302.52;107931;1235;96637;-82
2023/07/10 13:49:04;;;;;;;5.80;4.50;;;;;;;29.16;30.22;97304.52;107547;1243;102094;-86
2023/07/10 13:51:31;;;;;;;6.60;5.20;;;;;;;29.16;29.79;97298.73;107491;1245;100550;-87
2023/07/10 13:53:59;;;;;;;8.70;4.70;;;;;;;29.17;29.78;97297.75;107478;1239;96668;-85
2023/07/10 13:56:30;;;;;;;6.40;5.00;;;;;;;29.16;29.53;97299.09;107556;1250;96565;-85
2023/07/10 13:58:56;;;;;;;6.60;4.90;;;;;;;29.18;29.94;97303.44;107898;1239;102617;-84
2023/07/10 14:01:24;;;;;;;7.10;5.00;;;;;;;29.20;30.13;97303.69;107835;1241;96639;-86
2023/07/10 14:03:52;;;;;;;6.40;4.70;;;;;;;29.22;30.16;97297.72;107520;1250;97779;-84
2023/07/10 14:06:54;;;;;;;7.30;5.30;;;;;;;29.19;31.06;97294.59;107438;1244;96549;-85
2023/07/10 14:09:20;;;;;;;7.20;4.90;;;;;;;29.07;31.88;97289.95;106977;1243;97340;-86
2023/07/10 14:11:47;;;;;;;5.90;5.30;;;;;;;29.02;31.56;97283.55;107012;1248;97442;-85
2023/07/10 14:14:18;;;;;;;7.10;4.70;;;;;;;29.00;31.77;97279.83;106621;1248;96946;-85
2023/07/10 14:16:46;;;;;;;7.50;5.00;;;;;;;28.93;33.10;97281.37;106642;1248;100663;-85
2023/07/10 14:19:18;;;;;;;6.60;5.00;;;;;;;28.88;33.40;97283.70;106580;1248;96543;-84
2023/07/10 14:21:46;;;;;;;6.40;4.50;;;;;;;28.92;33.86;97280.23;106668;1251;96592;-85
2023/07/10 14:24:12;;;;;;;11.10;5.20;;;;;;;29.04;34.48;97276.27;106625;1251;103005;-85
2023/07/10 14:26:38;;;;;;;7.00;4.50;;;;;;;29.08;34.35;97276.41;106649;1248;96678;-84
2023/07/10 14:29:05;;;;;;;8.20;5.10;;;;;;;29.05;34.36;97274.23;106643;1251;96557;-83
2023/07/10 14:31:31;;;;;;;7.20;5.20;;;;;;;29.18;34.39;97277.56;106752;1260;96653;-85
2023/07/10 14:33:57;;;;;;;8.00;5.00;;;;;;;29.28;34.17;97266.59;106604;1253;102884;-86
2023/07/10 14:36:26;;;;;;;7.80;5.50;;;;;;;29.36;34.31;97261.30;106666;1251;96709;-85
2023/07/10 14:38:52;;;;;;;9.10;5.20;;;;;;;29.48;34.54;97252.09;106669;1248;97785;-86
2023/07/10 14:41:24;;;;;;;8.70;5.10;;;;;;;29.58;34.38;97250.11;106641;1254;96772;-85
2023/07/10 14:43:51;;;;;;;9.50;5.30;;;;;;;29.53;34.37;97245.85;106603;1251;96704;-85
2023/07/10 14:46:29;;;;;;;7.40;5.10;;;;;;;29.47;34.41;97240.69;107214;1241;96851;-85
2023/07/10 14:48:55;;;;;;;7.60;5.00;;;;;;;29.46;34.49;97241.77;107899;1235;101984;-82
2023/07/10 14:51:22;;;;;;;7.90;5.70;;;;;;;29.58;34.63;97239.55;107927;1235;97535;-82
2023/07/10 14:53:48;;;;;;;7.40;5.30;;;;;;;29.70;34.20;97237.70;107925;1239;96538;-84
2023/07/10 14:56:17;;;;;;;9.80;5.00;;;;;;;29.73;33.84;97242.74;107937;1235;96570;-84
2023/07/10 14:58:44;;;;;;;6.80;5.20;;;;;;;29.70;34.07;97246.60;107552;1243;102173;-85
2023/07/10 15:01:18;;;;;;;6.80;4.60;;;;;;;29.74;33.27;97244.52;107470;1245;96604;-81
2023/07/10 15:03:46;;;;;;;7.00;5.00;;;;;;;29.75;33.21;97242.80;107913;1239;97066;-87
2023/07/10 15:06:28;;;;;;;7.90;4.30;;;;;;;29.83;32.98;97243.75;107476;1243;97075;-82
2023/07/10 15:08:55;;;;;;;6.60;5.20;;;;;;;29.97;32.63;97247.71;107909;1239;102900;-82
2023/07/10 15:11:24;;;;;;;6.70;5.10;;;;;;;30.02;32.96;97249.34;108145;1244;97772;-84
2023/07/10 15:13:50;;;;;;;6.10;4.70;;;;;;;30.00;32.44;97253.81;107344;1248;100618;-85